sensor_id;sensor_type;location;lat;lon;timestamp;temperature;humidity
68701;DHT22;55682;51.114;5.882;2023-04-24T00:00:16;11.72;73.27
68701;DHT22;55682;51.114;5.882;2023-04-24T00:02:44;11.75;72.49
68701;DHT22;55682;51.114;5.882;2023-04-24T00:05:16;11.72;73.05
68701;DHT22;55682;51.114;5.882;2023-04-24T00:07:44;11.70;73.05
68701;DHT22;55682;51.114;5.882;2023-04-24T00:10:11;11.66;73.53
68701;DHT22;55682;51.114;5.882;2023-04-24T00:12:38;11.61;73.43
68701;DHT22;55682;51.114;5.882;2023-04-24T00:15:05;11.75;72.86
68701;DHT22;55682;51.114;5.882;2023-04-24T00:17:31;11.64;73.37
68701;DHT22;55682;51.114;5.882;2023-04-24T00:19:56;11.63;73.55
68701;DHT22;55682;51.114;5.882;2023-04-24T00:22:28;11.60;73.76
68701;DHT22;55682;51.114;5.882;2023-04-24T00:24:54;11.61;73.71
68701;DHT22;55682;51.114;5.882;2023-04-24T00:27:20;11.59;73.92
68701;DHT22;55682;51.114;5.882;2023-04-24T00:29:46;11.61;73.78
68701;DHT22;55682;51.114;5.882;2023-04-24T00:32:13;11.63;73.70
68701;DHT22;55682;51.114;5.882;2023-04-24T00:34:39;11.60;73.65
68701;DHT22;55682;51.114;5.882;2023-04-24T00:37:05;11.51;73.98
68701;DHT22;55682;51.114;5.882;2023-04-24T00:39:31;11.59;73.76
68701;DHT22;55682;51.114;5.882;2023-04-24T00:41:57;11.46;74.07
68701;DHT22;55682;51.114;5.882;2023-04-24T00:44:23;11.42;74.56
68701;DHT22;55682;51.114;5.882;2023-04-24T00:46:49;11.54;74.15
68701;DHT22;55682;51.114;5.882;2023-04-24T00:49:23;11.44;74.49
68701;DHT22;55682;51.114;5.882;2023-04-24T00:51:49;11.44;74.65
68701;DHT22;55682;51.114;5.882;2023-04-24T00:54:17;11.39;75.12
68701;DHT22;55682;51.114;5.882;2023-04-24T00:56:44;11.44;74.94
68701;DHT22;55682;51.114;5.882;2023-04-24T00:59:16;11.51;74.76
68701;DHT22;55682;51.114;5.882;2023-04-24T01:01:43;11.49;74.83
68701;DHT22;55682;51.114;5.882;2023-04-24T01:04:11;11.31;75.33
68701;DHT22;55682;51.114;5.882;2023-04-24T01:06:44;11.33;75.28
68701;DHT22;55682;51.114;5.882;2023-04-24T01:09:12;11.30;75.60
68701;DHT22;55682;51.114;5.882;2023-04-24T01:11:38;11.34;75.41
68701;DHT22;55682;51.114;5.882;2023-04-24T01:14:04;11.25;75.63
68701;DHT22;55682;51.114;5.882;2023-04-24T01:16:30;11.24;75.79
68701;DHT22;55682;51.114;5.882;2023-04-24T01:18:56;11.39;75.22
68701;DHT22;55682;51.114;5.882;2023-04-24T01:21:23;11.31;75.62
68701;DHT22;55682;51.114;5.882;2023-04-24T01:23:53;11.24;75.82
68701;DHT22;55682;51.114;5.882;2023-04-24T01:26:19;11.38;75.21
68701;DHT22;55682;51.114;5.882;2023-04-24T01:28:46;11.45;75.15
68701;DHT22;55682;51.114;5.882;2023-04-24T01:31:12;11.36;75.34
68701;DHT22;55682;51.114;5.882;2023-04-24T01:33:38;11.23;75.99
68701;DHT22;55682;51.114;5.882;2023-04-24T01:36:03;11.30;75.76
68701;DHT22;55682;51.114;5.882;2023-04-24T01:38:30;11.47;74.89
68701;DHT22;55682;51.114;5.882;2023-04-24T01:40:55;11.44;75.07
68701;DHT22;55682;51.114;5.882;2023-04-24T01:43:21;11.24;75.97
68701;DHT22;55682;51.114;5.882;2023-04-24T01:45:47;11.40;75.26
68701;DHT22;55682;51.114;5.882;2023-04-24T01:48:13;11.42;75.37
68701;DHT22;55682;51.114;5.882;2023-04-24T01:50:38;11.47;75.26
68701;DHT22;55682;51.114;5.882;2023-04-24T01:53:04;11.48;75.12
68701;DHT22;55682;51.114;5.882;2023-04-24T01:55:30;11.36;75.58
68701;DHT22;55682;51.114;5.882;2023-04-24T01:57:56;11.29;75.80
68701;DHT22;55682;51.114;5.882;2023-04-24T02:00:22;11.32;75.69
68701;DHT22;55682;51.114;5.882;2023-04-24T02:02:47;11.39;75.67
68701;DHT22;55682;51.114;5.882;2023-04-24T02:05:13;11.36;75.68
68701;DHT22;55682;51.114;5.882;2023-04-24T02:07:38;11.34;75.57
68701;DHT22;55682;51.114;5.882;2023-04-24T02:10:05;11.45;75.34
68701;DHT22;55682;51.114;5.882;2023-04-24T02:12:32;11.22;76.41
68701;DHT22;55682;51.114;5.882;2023-04-24T02:14:58;11.37;75.44
68701;DHT22;55682;51.114;5.882;2023-04-24T02:17:23;11.26;75.97
68701;DHT22;55682;51.114;5.882;2023-04-24T02:19:49;11.38;75.57
68701;DHT22;55682;51.114;5.882;2023-04-24T02:22:16;11.24;76.12
68701;DHT22;55682;51.114;5.882;2023-04-24T02:24:41;11.38;75.63
68701;DHT22;55682;51.114;5.882;2023-04-24T02:27:07;11.12;76.60
68701;DHT22;55682;51.114;5.882;2023-04-24T02:29:33;11.15;76.34
68701;DHT22;55682;51.114;5.882;2023-04-24T02:31:58;11.26;76.15
68701;DHT22;55682;51.114;5.882;2023-04-24T02:34:24;11.25;76.09
68701;DHT22;55682;51.114;5.882;2023-04-24T02:36:50;11.23;75.89
68701;DHT22;55682;51.114;5.882;2023-04-24T02:39:15;11.18;76.12
68701;DHT22;55682;51.114;5.882;2023-04-24T02:41:44;11.23;76.26
68701;DHT22;55682;51.114;5.882;2023-04-24T02:44:10;11.19;76.24
68701;DHT22;55682;51.114;5.882;2023-04-24T02:46:36;11.24;76.22
68701;DHT22;55682;51.114;5.882;2023-04-24T02:49:01;11.33;75.58
68701;DHT22;55682;51.114;5.882;2023-04-24T02:51:28;11.38;75.53
68701;DHT22;55682;51.114;5.882;2023-04-24T02:53:54;11.26;76.03
68701;DHT22;55682;51.114;5.882;2023-04-24T02:56:19;11.26;76.31
68701;DHT22;55682;51.114;5.882;2023-04-24T02:58:45;11.23;76.35
68701;DHT22;55682;51.114;5.882;2023-04-24T03:01:12;11.26;76.14
68701;DHT22;55682;51.114;5.882;2023-04-24T03:03:39;11.18;76.09
68701;DHT22;55682;51.114;5.882;2023-04-24T03:06:05;11.13;76.89
68701;DHT22;55682;51.114;5.882;2023-04-24T03:08:32;11.12;76.83
68701;DHT22;55682;51.114;5.882;2023-04-24T03:10:57;11.13;76.44
68701;DHT22;55682;51.114;5.882;2023-04-24T03:13:23;11.24;75.76
68701;DHT22;55682;51.114;5.882;2023-04-24T03:15:49;11.04;76.96
68701;DHT22;55682;51.114;5.882;2023-04-24T03:18:14;11.14;76.45
68701;DHT22;55682;51.114;5.882;2023-04-24T03:20:41;11.20;76.12
68701;DHT22;55682;51.114;5.882;2023-04-24T03:23:07;11.09;76.61
68701;DHT22;55682;51.114;5.882;2023-04-24T03:25:32;11.12;76.47
68701;DHT22;55682;51.114;5.882;2023-04-24T03:27:58;11.14;76.31
68701;DHT22;55682;51.114;5.882;2023-04-24T03:30:50;11.10;76.29
68701;DHT22;55682;51.114;5.882;2023-04-24T03:33:17;11.10;76.31
68701;DHT22;55682;51.114;5.882;2023-04-24T03:35:52;11.09;76.14
68701;DHT22;55682;51.114;5.882;2023-04-24T03:38:18;11.11;75.67
68701;DHT22;55682;51.114;5.882;2023-04-24T03:41:17;11.00;76.47
68701;DHT22;55682;51.114;5.882;2023-04-24T03:43:48;11.00;76.60
68701;DHT22;55682;51.114;5.882;2023-04-24T03:46:14;10.95;76.70
68701;DHT22;55682;51.114;5.882;2023-04-24T03:48:44;11.01;76.10
68701;DHT22;55682;51.114;5.882;2023-04-24T03:51:10;10.94;76.86
68701;DHT22;55682;51.114;5.882;2023-04-24T03:53:38;10.97;77.13
68701;DHT22;55682;51.114;5.882;2023-04-24T03:56:04;10.89;77.67
68701;DHT22;55682;51.114;5.882;2023-04-24T03:58:31;10.87;77.92
68701;DHT22;55682;51.114;5.882;2023-04-24T04:00:57;10.82;78.43
68701;DHT22;55682;51.114;5.882;2023-04-24T04:03:46;10.83;78.73
68701;DHT22;55682;51.114;5.882;2023-04-24T04:06:14;10.68;79.49
68701;DHT22;55682;51.114;5.882;2023-04-24T04:08:40;10.66;79.82
68701;DHT22;55682;51.114;5.882;2023-04-24T04:11:06;10.56;80.74
68701;DHT22;55682;51.114;5.882;2023-04-24T04:13:31;10.68;80.37
68701;DHT22;55682;51.114;5.882;2023-04-24T04:15:57;10.50;81.23
68701;DHT22;55682;51.114;5.882;2023-04-24T04:18:23;10.49;81.36
68701;DHT22;55682;51.114;5.882;2023-04-24T04:20:48;10.40;81.72
68701;DHT22;55682;51.114;5.882;2023-04-24T04:23:14;10.51;81.49
68701;DHT22;55682;51.114;5.882;2023-04-24T04:26:01;10.42;81.91
68701;DHT22;55682;51.114;5.882;2023-04-24T04:28:38;10.38;82.05
68701;DHT22;55682;51.114;5.882;2023-04-24T04:31:05;10.44;82.05
68701;DHT22;55682;51.114;5.882;2023-04-24T04:33:30;10.46;81.59
68701;DHT22;55682;51.114;5.882;2023-04-24T04:35:56;10.31;82.14
68701;DHT22;55682;51.114;5.882;2023-04-24T04:38:24;10.40;81.55
68701;DHT22;55682;51.114;5.882;2023-04-24T04:41:06;10.31;82.34
68701;DHT22;55682;51.114;5.882;2023-04-24T04:43:32;10.39;81.55
68701;DHT22;55682;51.114;5.882;2023-04-24T04:45:59;10.39;81.74
68701;DHT22;55682;51.114;5.882;2023-04-24T04:48:53;10.43;81.75
68701;DHT22;55682;51.114;5.882;2023-04-24T04:51:19;10.54;81.07
68701;DHT22;55682;51.114;5.882;2023-04-24T04:53:45;10.45;81.55
68701;DHT22;55682;51.114;5.882;2023-04-24T04:56:11;10.55;81.36
68701;DHT22;55682;51.114;5.882;2023-04-24T04:58:41;10.69;80.88
68701;DHT22;55682;51.114;5.882;2023-04-24T05:01:10;10.59;81.40
68701;DHT22;55682;51.114;5.882;2023-04-24T05:03:40;10.62;81.09
68701;DHT22;55682;51.114;5.882;2023-04-24T05:06:09;10.58;81.11
68701;DHT22;55682;51.114;5.882;2023-04-24T05:08:37;10.52;81.58
68701;DHT22;55682;51.114;5.882;2023-04-24T05:11:05;10.42;82.06
68701;DHT22;55682;51.114;5.882;2023-04-24T05:13:31;10.45;82.01
68701;DHT22;55682;51.114;5.882;2023-04-24T05:15:58;10.42;82.10
68701;DHT22;55682;51.114;5.882;2023-04-24T05:18:24;10.35;82.78
68701;DHT22;55682;51.114;5.882;2023-04-24T05:20:50;10.31;82.76
68701;DHT22;55682;51.114;5.882;2023-04-24T05:23:15;10.35;82.87
68701;DHT22;55682;51.114;5.882;2023-04-24T05:25:44;10.40;82.95
68701;DHT22;55682;51.114;5.882;2023-04-24T05:28:11;10.21;83.86
68701;DHT22;55682;51.114;5.882;2023-04-24T05:30:37;10.27;83.66
68701;DHT22;55682;51.114;5.882;2023-04-24T05:33:03;10.37;83.53
68701;DHT22;55682;51.114;5.882;2023-04-24T05:35:31;10.23;84.13
68701;DHT22;55682;51.114;5.882;2023-04-24T05:37:57;10.18;84.13
68701;DHT22;55682;51.114;5.882;2023-04-24T05:40:23;10.25;84.05
68701;DHT22;55682;51.114;5.882;2023-04-24T05:42:49;10.26;84.01
68701;DHT22;55682;51.114;5.882;2023-04-24T05:45:14;10.30;84.13
68701;DHT22;55682;51.114;5.882;2023-04-24T05:47:43;10.33;84.10
68701;DHT22;55682;51.114;5.882;2023-04-24T05:50:10;10.36;83.87
68701;DHT22;55682;51.114;5.882;2023-04-24T05:52:36;10.40;83.99
68701;DHT22;55682;51.114;5.882;2023-04-24T05:55:07;10.35;84.03
68701;DHT22;55682;51.114;5.882;2023-04-24T05:57:36;10.40;83.53
68701;DHT22;55682;51.114;5.882;2023-04-24T06:00:04;10.42;83.36
68701;DHT22;55682;51.114;5.882;2023-04-24T06:02:39;10.36;84.00
68701;DHT22;55682;51.114;5.882;2023-04-24T06:05:06;10.37;83.88
68701;DHT22;55682;51.114;5.882;2023-04-24T06:07:33;10.38;84.06
68701;DHT22;55682;51.114;5.882;2023-04-24T06:10:02;10.39;83.84
68701;DHT22;55682;51.114;5.882;2023-04-24T06:12:31;10.44;83.49
68701;DHT22;55682;51.114;5.882;2023-04-24T06:15:03;10.51;83.07
68701;DHT22;55682;51.114;5.882;2023-04-24T06:17:50;10.41;83.21
68701;DHT22;55682;51.114;5.882;2023-04-24T06:20:17;10.41;83.16
68701;DHT22;55682;51.114;5.882;2023-04-24T06:22:42;10.36;83.34
68701;DHT22;55682;51.114;5.882;2023-04-24T06:25:09;10.43;83.32
68701;DHT22;55682;51.114;5.882;2023-04-24T06:27:35;10.39;83.31
68701;DHT22;55682;51.114;5.882;2023-04-24T06:30:01;10.37;83.52
68701;DHT22;55682;51.114;5.882;2023-04-24T06:32:26;10.42;83.74
68701;DHT22;55682;51.114;5.882;2023-04-24T06:34:52;10.36;82.96
68701;DHT22;55682;51.114;5.882;2023-04-24T06:37:19;10.30;82.73
68701;DHT22;55682;51.114;5.882;2023-04-24T06:39:46;10.29;82.26
68701;DHT22;55682;51.114;5.882;2023-04-24T06:42:12;10.27;82.01
68701;DHT22;55682;51.114;5.882;2023-04-24T06:44:37;10.23;81.41
68701;DHT22;55682;51.114;5.882;2023-04-24T06:47:07;10.16;81.66
68701;DHT22;55682;51.114;5.882;2023-04-24T06:49:35;10.09;81.74
68701;DHT22;55682;51.114;5.882;2023-04-24T06:52:01;9.96;85.16
68701;DHT22;55682;51.114;5.882;2023-04-24T06:54:26;9.97;81.40
68701;DHT22;55682;51.114;5.882;2023-04-24T06:56:52;9.88;81.38
68701;DHT22;55682;51.114;5.882;2023-04-24T06:59:18;9.80;81.43
68701;DHT22;55682;51.114;5.882;2023-04-24T07:01:43;9.79;81.49
68701;DHT22;55682;51.114;5.882;2023-04-24T07:04:09;9.83;81.97
68701;DHT22;55682;51.114;5.882;2023-04-24T07:06:35;9.85;82.22
68701;DHT22;55682;51.114;5.882;2023-04-24T07:09:01;9.85;82.38
68701;DHT22;55682;51.114;5.882;2023-04-24T07:11:27;9.90;82.36
68701;DHT22;55682;51.114;5.882;2023-04-24T07:13:55;9.91;83.06
68701;DHT22;55682;51.114;5.882;2023-04-24T07:16:21;9.86;83.55
68701;DHT22;55682;51.114;5.882;2023-04-24T07:18:46;9.94;83.35
68701;DHT22;55682;51.114;5.882;2023-04-24T07:21:12;9.88;83.81
68701;DHT22;55682;51.114;5.882;2023-04-24T07:23:37;9.83;84.32
68701;DHT22;55682;51.114;5.882;2023-04-24T07:26:03;9.78;84.79
68701;DHT22;55682;51.114;5.882;2023-04-24T07:28:29;9.80;84.40
68701;DHT22;55682;51.114;5.882;2023-04-24T07:30:57;9.83;83.97
68701;DHT22;55682;51.114;5.882;2023-04-24T07:33:28;9.82;83.86
68701;DHT22;55682;51.114;5.882;2023-04-24T07:35:54;9.83;83.89
68701;DHT22;55682;51.114;5.882;2023-04-24T07:38:19;9.88;83.61
68701;DHT22;55682;51.114;5.882;2023-04-24T07:40:49;9.94;83.41
68701;DHT22;55682;51.114;5.882;2023-04-24T07:43:14;9.96;83.04
68701;DHT22;55682;51.114;5.882;2023-04-24T07:45:40;9.96;82.35
68701;DHT22;55682;51.114;5.882;2023-04-24T07:48:06;10.01;82.37
68701;DHT22;55682;51.114;5.882;2023-04-24T07:50:32;10.05;82.28
68701;DHT22;55682;51.114;5.882;2023-04-24T07:52:57;10.08;82.37
68701;DHT22;55682;51.114;5.882;2023-04-24T07:55:23;10.07;82.09
68701;DHT22;55682;51.114;5.882;2023-04-24T07:57:49;10.09;81.51
68701;DHT22;55682;51.114;5.882;2023-04-24T08:00:15;10.06;81.73
68701;DHT22;55682;51.114;5.882;2023-04-24T08:02:40;9.98;81.82
68701;DHT22;55682;51.114;5.882;2023-04-24T08:05:06;10.06;81.78
68701;DHT22;55682;51.114;5.882;2023-04-24T08:07:32;10.09;81.86
68701;DHT22;55682;51.114;5.882;2023-04-24T08:09:58;10.14;82.13
68701;DHT22;55682;51.114;5.882;2023-04-24T08:12:25;10.18;81.81
68701;DHT22;55682;51.114;5.882;2023-04-24T08:14:50;10.25;81.93
68701;DHT22;55682;51.114;5.882;2023-04-24T08:17:17;10.31;81.89
68701;DHT22;55682;51.114;5.882;2023-04-24T08:19:42;10.43;81.73
68701;DHT22;55682;51.114;5.882;2023-04-24T08:22:13;10.49;81.30
68701;DHT22;55682;51.114;5.882;2023-04-24T08:24:38;10.54;81.32
68701;DHT22;55682;51.114;5.882;2023-04-24T08:27:04;10.59;81.29
68701;DHT22;55682;51.114;5.882;2023-04-24T08:29:30;10.71;80.85
68701;DHT22;55682;51.114;5.882;2023-04-24T08:31:55;10.77;80.91
68701;DHT22;55682;51.114;5.882;2023-04-24T08:34:22;10.84;80.53
68701;DHT22;55682;51.114;5.882;2023-04-24T08:36:48;10.95;80.37
68701;DHT22;55682;51.114;5.882;2023-04-24T08:39:14;11.09;80.19
68701;DHT22;55682;51.114;5.882;2023-04-24T08:41:42;11.19;79.99
68701;DHT22;55682;51.114;5.882;2023-04-24T08:44:12;11.31;79.43
68701;DHT22;55682;51.114;5.882;2023-04-24T08:46:40;11.37;78.98
68701;DHT22;55682;51.114;5.882;2023-04-24T08:49:06;11.43;78.93
68701;DHT22;55682;51.114;5.882;2023-04-24T08:51:31;11.55;78.53
68701;DHT22;55682;51.114;5.882;2023-04-24T08:53:58;11.64;78.21
68701;DHT22;55682;51.114;5.882;2023-04-24T08:56:24;11.77;77.91
68701;DHT22;55682;51.114;5.882;2023-04-24T08:58:51;11.94;77.38
68701;DHT22;55682;51.114;5.882;2023-04-24T09:01:19;12.07;77.46
68701;DHT22;55682;51.114;5.882;2023-04-24T09:03:48;12.21;76.93
68701;DHT22;55682;51.114;5.882;2023-04-24T09:06:17;12.26;76.18
68701;DHT22;55682;51.114;5.882;2023-04-24T09:08:46;12.33;76.15
68701;DHT22;55682;51.114;5.882;2023-04-24T09:11:12;12.47;75.23
68701;DHT22;55682;51.114;5.882;2023-04-24T09:13:38;12.53;75.17
68701;DHT22;55682;51.114;5.882;2023-04-24T09:16:04;12.49;74.68
68701;DHT22;55682;51.114;5.882;2023-04-24T09:18:30;12.44;74.81
68701;DHT22;55682;51.114;5.882;2023-04-24T09:21:07;12.32;74.80
68701;DHT22;55682;51.114;5.882;2023-04-24T09:23:33;12.22;75.12
68701;DHT22;55682;51.114;5.882;2023-04-24T09:26:00;12.26;75.72
68701;DHT22;55682;51.114;5.882;2023-04-24T09:28:32;12.37;75.63
68701;DHT22;55682;51.114;5.882;2023-04-24T09:31:11;12.45;75.15
68701;DHT22;55682;51.114;5.882;2023-04-24T09:33:38;12.49;75.26
68701;DHT22;55682;51.114;5.882;2023-04-24T09:36:04;12.63;75.06
68701;DHT22;55682;51.114;5.882;2023-04-24T09:38:36;12.73;74.57
68701;DHT22;55682;51.114;5.882;2023-04-24T09:41:07;12.82;74.10
68701;DHT22;55682;51.114;5.882;2023-04-24T09:43:35;12.79;74.22
68701;DHT22;55682;51.114;5.882;2023-04-24T09:46:06;12.78;73.67
68701;DHT22;55682;51.114;5.882;2023-04-24T09:48:34;12.78;73.51
68701;DHT22;55682;51.114;5.882;2023-04-24T09:51:02;12.86;73.24
68701;DHT22;55682;51.114;5.882;2023-04-24T09:53:29;13.00;73.28
68701;DHT22;55682;51.114;5.882;2023-04-24T09:56:01;13.23;72.87
68701;DHT22;55682;51.114;5.882;2023-04-24T09:58:29;13.61;72.45
68701;DHT22;55682;51.114;5.882;2023-04-24T10:00:56;13.86;70.14
68701;DHT22;55682;51.114;5.882;2023-04-24T10:03:25;13.86;69.78
68701;DHT22;55682;51.114;5.882;2023-04-24T10:05:53;13.95;69.70
68701;DHT22;55682;51.114;5.882;2023-04-24T10:08:19;14.18;68.23
68701;DHT22;55682;51.114;5.882;2023-04-24T10:10:46;14.63;67.93
68701;DHT22;55682;51.114;5.882;2023-04-24T10:13:13;15.43;66.47
68701;DHT22;55682;51.114;5.882;2023-04-24T10:15:41;16.16;63.92
68701;DHT22;55682;51.114;5.882;2023-04-24T10:18:08;16.79;61.49
68701;DHT22;55682;51.114;5.882;2023-04-24T10:20:36;17.79;58.95
68701;DHT22;55682;51.114;5.882;2023-04-24T10:23:03;18.35;55.17
68701;DHT22;55682;51.114;5.882;2023-04-24T10:25:32;18.71;53.81
68701;DHT22;55682;51.114;5.882;2023-04-24T10:28:00;19.26;52.75
68701;DHT22;55682;51.114;5.882;2023-04-24T10:30:28;19.53;51.28
68701;DHT22;55682;51.114;5.882;2023-04-24T10:32:54;19.22;50.63
68701;DHT22;55682;51.114;5.882;2023-04-24T10:35:20;18.86;51.76
68701;DHT22;55682;51.114;5.882;2023-04-24T10:38:08;18.87;51.83
68701;DHT22;55682;51.114;5.882;2023-04-24T10:40:35;18.82;50.97
68701;DHT22;55682;51.114;5.882;2023-04-24T10:43:06;18.57;51.66
68701;DHT22;55682;51.114;5.882;2023-04-24T10:45:34;18.55;51.83
68701;DHT22;55682;51.114;5.882;2023-04-24T10:48:07;18.25;52.46
68701;DHT22;55682;51.114;5.882;2023-04-24T10:50:45;17.48;52.60
68701;DHT22;55682;51.114;5.882;2023-04-24T10:53:20;16.84;54.73
68701;DHT22;55682;51.114;5.882;2023-04-24T10:58:14;15.85;57.63
68701;DHT22;55682;51.114;5.882;2023-04-24T11:00:43;15.27;59.19
68701;DHT22;55682;51.114;5.882;2023-04-24T11:03:29;14.86;61.30
68701;DHT22;55682;51.114;5.882;2023-04-24T11:06:06;14.62;60.86
68701;DHT22;55682;51.114;5.882;2023-04-24T11:08:38;14.38;60.98
68701;DHT22;55682;51.114;5.882;2023-04-24T11:11:12;14.19;60.80
68701;DHT22;55682;51.114;5.882;2023-04-24T11:18:57;13.77;61.30
68701;DHT22;55682;51.114;5.882;2023-04-24T11:21:25;13.76;60.86
68701;DHT22;55682;51.114;5.882;2023-04-24T11:23:51;14.00;60.54
68701;DHT22;55682;51.114;5.882;2023-04-24T11:26:23;14.32;59.38
68701;DHT22;55682;51.114;5.882;2023-04-24T11:29:07;14.52;58.73
68701;DHT22;55682;51.114;5.882;2023-04-24T11:31:40;14.73;58.12
68701;DHT22;55682;51.114;5.882;2023-04-24T11:34:12;14.83;57.10
68701;DHT22;55682;51.114;5.882;2023-04-24T11:36:40;14.83;57.33
68701;DHT22;55682;51.114;5.882;2023-04-24T11:39:06;14.89;56.83
68701;DHT22;55682;51.114;5.882;2023-04-24T11:41:33;15.41;56.86
68701;DHT22;55682;51.114;5.882;2023-04-24T11:43:59;16.85;54.33
68701;DHT22;55682;51.114;5.882;2023-04-24T11:46:27;18.42;51.14
68701;DHT22;55682;51.114;5.882;2023-04-24T11:48:54;18.88;48.42
68701;DHT22;55682;51.114;5.882;2023-04-24T11:51:19;18.88;47.17
68701;DHT22;55682;51.114;5.882;2023-04-24T11:53:45;18.69;47.25
68701;DHT22;55682;51.114;5.882;2023-04-24T11:56:11;18.42;47.00
68701;DHT22;55682;51.114;5.882;2023-04-24T11:58:38;18.13;47.65
68701;DHT22;55682;51.114;5.882;2023-04-24T12:01:04;17.69;48.81
68701;DHT22;55682;51.114;5.882;2023-04-24T12:03:31;17.32;48.98
68701;DHT22;55682;51.114;5.882;2023-04-24T12:06:06;16.86;49.29
68701;DHT22;55682;51.114;5.882;2023-04-24T12:08:33;16.37;49.73
68701;DHT22;55682;51.114;5.882;2023-04-24T12:11:04;15.99;50.63
68701;DHT22;55682;51.114;5.882;2023-04-24T12:13:33;15.81;51.50
68701;DHT22;55682;51.114;5.882;2023-04-24T12:15:59;15.90;52.65
68701;DHT22;55682;51.114;5.882;2023-04-24T12:18:26;16.07;51.42
68701;DHT22;55682;51.114;5.882;2023-04-24T12:20:51;16.02;51.20
68701;DHT22;55682;51.114;5.882;2023-04-24T12:23:36;15.98;51.79
68701;DHT22;55682;51.114;5.882;2023-04-24T12:26:04;16.04;52.43
68701;DHT22;55682;51.114;5.882;2023-04-24T12:28:37;16.16;52.04
68701;DHT22;55682;51.114;5.882;2023-04-24T12:31:04;16.36;51.88
68701;DHT22;55682;51.114;5.882;2023-04-24T12:33:33;16.73;51.60
68701;DHT22;55682;51.114;5.882;2023-04-24T12:36:00;17.17;50.63
68701;DHT22;55682;51.114;5.882;2023-04-24T12:38:28;17.48;50.01
68701;DHT22;55682;51.114;5.882;2023-04-24T12:41:03;17.63;49.20
68701;DHT22;55682;51.114;5.882;2023-04-24T12:43:29;17.66;48.57
68701;DHT22;55682;51.114;5.882;2023-04-24T12:45:55;17.60;48.51
68701;DHT22;55682;51.114;5.882;2023-04-24T12:48:20;17.68;48.50
68701;DHT22;55682;51.114;5.882;2023-04-24T12:50:47;17.67;48.31
68701;DHT22;55682;51.114;5.882;2023-04-24T12:53:13;17.41;47.70
68701;DHT22;55682;51.114;5.882;2023-04-24T12:55:39;17.11;48.31
68701;DHT22;55682;51.114;5.882;2023-04-24T12:58:05;16.89;48.89
68701;DHT22;55682;51.114;5.882;2023-04-24T13:00:31;16.73;49.23
68701;DHT22;55682;51.114;5.882;2023-04-24T13:02:57;16.88;49.56
68701;DHT22;55682;51.114;5.882;2023-04-24T13:05:22;16.96;49.28
68701;DHT22;55682;51.114;5.882;2023-04-24T13:07:48;16.89;48.98
68701;DHT22;55682;51.114;5.882;2023-04-24T13:10:13;16.71;49.08
68701;DHT22;55682;51.114;5.882;2023-04-24T13:12:39;16.48;49.37
68701;DHT22;55682;51.114;5.882;2023-04-24T13:15:06;16.25;49.87
68701;DHT22;55682;51.114;5.882;2023-04-24T13:17:32;15.96;50.84
68701;DHT22;55682;51.114;5.882;2023-04-24T13:19:58;15.95;51.91
68701;DHT22;55682;51.114;5.882;2023-04-24T13:22:24;16.06;51.44
68701;DHT22;55682;51.114;5.882;2023-04-24T13:24:50;16.25;50.83
68701;DHT22;55682;51.114;5.882;2023-04-24T13:27:16;16.35;50.59
68701;DHT22;55682;51.114;5.882;2023-04-24T13:29:42;16.45;50.30
68701;DHT22;55682;51.114;5.882;2023-04-24T13:32:08;16.65;50.21
68701;DHT22;55682;51.114;5.882;2023-04-24T13:34:34;16.73;49.41
68701;DHT22;55682;51.114;5.882;2023-04-24T13:37:00;16.88;49.39
68701;DHT22;55682;51.114;5.882;2023-04-24T13:39:26;17.07;48.09
68701;DHT22;55682;51.114;5.882;2023-04-24T13:41:52;17.14;47.80
68701;DHT22;55682;51.114;5.882;2023-04-24T13:44:20;17.26;47.79
68701;DHT22;55682;51.114;5.882;2023-04-24T13:46:47;17.20;46.96
68701;DHT22;55682;51.114;5.882;2023-04-24T13:49:14;17.22;46.89
68701;DHT22;55682;51.114;5.882;2023-04-24T13:51:40;17.44;46.72
68701;DHT22;55682;51.114;5.882;2023-04-24T13:54:06;17.59;46.00
68701;DHT22;55682;51.114;5.882;2023-04-24T13:56:32;17.67;45.63
68701;DHT22;55682;51.114;5.882;2023-04-24T13:58:58;17.76;45.13
68701;DHT22;55682;51.114;5.882;2023-04-24T14:01:24;17.85;45.82
68701;DHT22;55682;51.114;5.882;2023-04-24T14:03:54;18.04;45.73
68701;DHT22;55682;51.114;5.882;2023-04-24T14:06:20;18.17;45.48
68701;DHT22;55682;51.114;5.882;2023-04-24T14:08:47;18.26;45.42
68701;DHT22;55682;51.114;5.882;2023-04-24T14:11:13;18.32;45.25
68701;DHT22;55682;51.114;5.882;2023-04-24T14:13:41;18.35;45.24
68701;DHT22;55682;51.114;5.882;2023-04-24T14:16:07;18.41;44.39
68701;DHT22;55682;51.114;5.882;2023-04-24T14:18:32;18.39;43.74
68701;DHT22;55682;51.114;5.882;2023-04-24T14:20:58;18.25;43.80
68701;DHT22;55682;51.114;5.882;2023-04-24T14:23:24;18.08;42.96
68701;DHT22;55682;51.114;5.882;2023-04-24T14:25:50;17.81;43.84
68701;DHT22;55682;51.114;5.882;2023-04-24T14:28:20;17.55;43.72
68701;DHT22;55682;51.114;5.882;2023-04-24T14:30:47;17.23;44.23
68701;DHT22;55682;51.114;5.882;2023-04-24T14:33:13;17.15;44.60
68701;DHT22;55682;51.114;5.882;2023-04-24T14:35:42;17.04;45.49
68701;DHT22;55682;51.114;5.882;2023-04-24T14:38:08;16.94;45.45
68701;DHT22;55682;51.114;5.882;2023-04-24T14:40:34;17.04;44.59
68701;DHT22;55682;51.114;5.882;2023-04-24T14:43:00;17.06;44.93
68701;DHT22;55682;51.114;5.882;2023-04-24T14:45:27;17.13;45.06
68701;DHT22;55682;51.114;5.882;2023-04-24T14:47:53;17.13;45.03
68701;DHT22;55682;51.114;5.882;2023-04-24T14:50:19;17.18;44.57
68701;DHT22;55682;51.114;5.882;2023-04-24T14:52:44;17.26;44.06
68701;DHT22;55682;51.114;5.882;2023-04-24T14:55:10;17.29;43.78
68701;DHT22;55682;51.114;5.882;2023-04-24T14:57:36;17.32;43.16
68701;DHT22;55682;51.114;5.882;2023-04-24T15:00:03;17.45;43.48
68701;DHT22;55682;51.114;5.882;2023-04-24T15:02:32;17.55;43.29
68701;DHT22;55682;51.114;5.882;2023-04-24T15:04:58;17.68;43.13
68701;DHT22;55682;51.114;5.882;2023-04-24T15:07:24;17.64;43.29
68701;DHT22;55682;51.114;5.882;2023-04-24T15:09:50;17.63;43.50
68701;DHT22;55682;51.114;5.882;2023-04-24T15:12:15;17.56;42.55
68701;DHT22;55682;51.114;5.882;2023-04-24T15:14:41;17.48;43.11
68701;DHT22;55682;51.114;5.882;2023-04-24T15:17:07;17.37;42.91
68701;DHT22;55682;51.114;5.882;2023-04-24T15:19:32;17.31;44.54
68701;DHT22;55682;51.114;5.882;2023-04-24T15:21:58;17.41;45.02
68701;DHT22;55682;51.114;5.882;2023-04-24T15:24:23;17.46;45.59
68701;DHT22;55682;51.114;5.882;2023-04-24T15:26:49;17.34;45.63
68701;DHT22;55682;51.114;5.882;2023-04-24T15:29:15;17.30;45.90
68701;DHT22;55682;51.114;5.882;2023-04-24T15:31:41;17.21;45.49
68701;DHT22;55682;51.114;5.882;2023-04-24T15:34:07;17.18;45.62
68701;DHT22;55682;51.114;5.882;2023-04-24T15:36:32;17.15;45.48
68701;DHT22;55682;51.114;5.882;2023-04-24T15:38:58;17.17;45.10
68701;DHT22;55682;51.114;5.882;2023-04-24T15:41:24;17.15;45.57